Time;durP1;ratioP1;P1;durP2;ratioP2;P2;SDS_P1;SDS_P2;PMS_P1;PMS_P2;Temp;Humidity;BMP_temperature;BMP_pressure;BME280_temperature;BME280_humidity;BME280_pressure;Samples;Min_cycle;Max_cycle;Signal;HPM_P1;HPM_P2
2022/09/03 00:00:54;;;;;;;28.13;26.67;;;17.50;71.20;;;;;;5009229;28;20556;-69
2022/09/03 00:03:25;;;;;;;29.37;27.40;;;17.50;70.90;;;;;;5016020;28;20963;-69
2022/09/03 00:06:02;;;;;;;29.47;27.97;;;17.50;71.20;;;;;;5007207;28;20465;-69
2022/09/03 00:08:35;;;;;;;30.20;28.70;;;17.40;71.60;;;;;;5009598;28;20506;-68
2022/09/03 00:11:11;;;;;;;28.80;27.07;;;17.40;71.70;;;;;;5013938;28;20461;-68
2022/09/03 00:13:44;;;;;;;29.90;28.30;;;17.40;71.50;;;;;;5003321;28;20561;-68
2022/09/03 00:16:17;;;;;;;27.77;26.43;;;17.40;71.60;;;;;;5003424;28;20469;-70
2022/09/03 00:18:49;;;;;;;27.40;26.20;;;17.50;71.30;;;;;;5003295;28;20466;-68
2022/09/03 00:21:22;;;;;;;27.50;26.20;;;17.50;71.30;;;;;;5003422;28;20476;-68
2022/09/03 00:23:51;;;;;;;26.83;25.53;;;17.50;71.00;;;;;;5002613;28;21035;-68
2022/09/03 00:26:25;;;;;;;28.73;27.43;;;17.50;71.40;;;;;;5007873;28;20552;-69
2022/09/03 00:28:59;;;;;;;28.57;26.93;;;17.50;71.50;;;;;;5001502;28;20539;-68
2022/09/03 00:31:31;;;;;;;29.53;28.13;;;17.50;71.70;;;;;;5002773;28;20507;-68
2022/09/03 00:34:03;;;;;;;27.40;26.10;;;17.50;71.60;;;;;;5001680;28;20556;-69
2022/09/03 00:36:36;;;;;;;28.90;27.60;;;17.50;71.70;;;;;;4998315;28;20496;-69
2022/09/03 00:39:04;;;;;;;29.90;28.40;;;17.50;71.50;;;;;;4996052;28;20540;-68
2022/09/03 00:41:39;;;;;;;28.53;27.23;;;17.60;71.50;;;;;;4997338;28;21105;-68
2022/09/03 00:44:26;;;;;;;28.77;27.40;;;17.60;71.40;;;;;;5002062;28;20468;-69
2022/09/03 00:46:59;;;;;;;29.40;27.73;;;17.60;71.40;;;;;;4995397;28;20477;-68
2022/09/03 00:49:40;;;;;;;30.10;28.70;;;17.60;71.50;;;;;;5005636;28;20978;-68
2022/09/03 00:52:18;;;;;;;29.83;28.13;;;17.60;71.50;;;;;;5008179;28;20495;-68
2022/09/03 00:54:54;;;;;;;30.03;28.43;;;17.70;71.40;;;;;;4996863;28;20556;-69
2022/09/03 00:57:30;;;;;;;27.37;25.97;;;17.70;71.20;;;;;;5004854;28;20453;-69
2022/09/03 01:00:07;;;;;;;28.27;26.90;;;17.80;71.20;;;;;;5002449;28;20466;-67
2022/09/03 01:02:55;;;;;;;27.87;26.57;;;17.80;71.10;;;;;;4997711;28;21018;-67
2022/09/03 01:05:42;;;;;;;28.83;27.63;;;17.70;71.40;;;;;;5000326;28;20509;-67
2022/09/03 01:08:31;;;;;;;28.03;26.67;;;17.80;71.40;;;;;;5004815;28;20953;-66
2022/09/03 01:11:10;;;;;;;29.70;28.00;;;17.80;71.40;;;;;;5003686;28;20477;-67
2022/09/03 01:13:43;;;;;;;27.40;26.00;;;17.80;71.40;;;;;;5003914;28;20584;-67
2022/09/03 01:16:26;;;;;;;29.60;28.30;;;17.80;71.30;;;;;;5003921;28;21354;-66
2022/09/03 01:19:00;;;;;;;30.10;28.60;;;17.80;71.10;;;;;;4999656;28;20468;-66
2022/09/03 01:21:51;;;;;;;29.17;27.77;;;17.80;71.40;;;;;;5000989;28;20488;-67
2022/09/03 01:24:46;;;;;;;28.93;27.53;;;17.80;71.00;;;;;;4998533;28;20461;-67
2022/09/03 01:27:25;;;;;;;30.00;28.70;;;17.90;70.30;;;;;;4994052;28;20457;-67
2022/09/03 01:30:02;;;;;;;28.10;26.90;;;17.90;70.40;;;;;;5003199;28;20466;-67
2022/09/03 01:32:39;;;;;;;29.27;27.97;;;17.90;70.50;;;;;;4994489;28;20513;-66
2022/09/03 01:35:18;;;;;;;29.43;28.13;;;18.00;70.50;;;;;;5004363;28;20462;-67
2022/09/03 01:38:24;;;;;;;28.00;26.80;;;18.00;70.40;;;;;;4993889;28;20507;-67
2022/09/03 01:42:12;;;;;;;28.47;27.00;;;18.00;70.60;;;;;;4998187;28;20464;-67
2022/09/03 01:43:57;;;;;;;29.50;28.20;;;18.10;70.50;;;;;;4996555;28;20478;-66
2022/09/03 01:46:30;;;;;;;27.87;26.67;;;18.00;70.60;;;;;;5003260;28;20467;-67
2022/09/03 01:49:03;;;;;;;29.00;27.40;;;18.10;70.50;;;;;;5004793;28;20513;-67
2022/09/03 01:51:32;;;;;;;27.83;26.57;;;18.00;70.50;;;;;;5003791;28;20861;-67
2022/09/03 01:54:31;;;;;;;28.37;27.03;;;18.00;70.60;;;;;;4997771;28;20477;-67
2022/09/03 01:57:19;;;;;;;30.83;29.27;;;18.10;70.30;;;;;;5003935;28;20457;-67
2022/09/03 01:59:51;;;;;;;28.00;26.77;;;18.10;70.10;;;;;;5004683;28;20463;-66
2022/09/03 02:02:22;;;;;;;28.07;26.67;;;18.10;70.40;;;;;;4999785;28;21002;-67
2022/09/03 02:04:59;;;;;;;26.57;25.27;;;18.10;70.50;;;;;;5002032;28;20903;-67
2022/09/03 02:07:32;;;;;;;27.77;26.47;;;18.10;70.50;;;;;;5002821;28;20467;-67
2022/09/03 02:09:59;;;;;;;28.33;27.03;;;18.00;70.70;;;;;;5002156;28;20469;-67
2022/09/03 02:12:26;;;;;;;27.30;26.10;;;18.10;70.60;;;;;;5002909;28;20477;-67
2022/09/03 02:14:53;;;;;;;27.87;26.20;;;18.10;70.30;;;;;;5006919;28;20462;-67
2022/09/03 02:17:21;;;;;;;27.80;26.40;;;18.10;70.30;;;;;;5001100;28;20575;-67
2022/09/03 02:19:49;;;;;;;26.70;25.60;;;18.00;70.80;;;;;;4993631;28;20470;-67
2022/09/03 02:22:17;;;;;;;26.50;25.13;;;17.90;70.80;;;;;;5006132;28;20993;-67
2022/09/03 02:24:43;;;;;;;29.43;28.13;;;18.00;70.60;;;;;;5006052;28;20471;-66
2022/09/03 02:27:10;;;;;;;30.20;28.67;;;18.00;70.70;;;;;;5005594;28;20465;-67
2022/09/03 02:29:38;;;;;;;28.47;27.20;;;18.00;70.80;;;;;;5003423;28;20460;-66
2022/09/03 02:32:05;;;;;;;26.93;25.63;;;17.90;70.90;;;;;;5003932;28;20482;-69
2022/09/03 02:34:33;;;;;;;26.70;25.37;;;17.90;71.10;;;;;;5000802;28;20493;-69
2022/09/03 02:37:00;;;;;;;30.10;28.70;;;17.90;70.90;;;;;;5005293;28;20832;-72
2022/09/03 02:39:27;;;;;;;31.80;30.40;;;17.90;71.10;;;;;;5005954;28;20457;-69
2022/09/03 02:41:56;;;;;;;30.40;29.00;;;17.90;71.20;;;;;;4994176;28;20836;-69
2022/09/03 02:44:29;;;;;;;26.23;25.03;;;17.80;71.10;;;;;;4998812;28;20461;-70
2022/09/03 02:46:59;;;;;;;27.93;26.73;;;17.90;71.20;;;;;;5004213;28;20459;-67
2022/09/03 02:49:26;;;;;;;37.40;35.70;;;17.90;71.00;;;;;;5005614;28;20895;-67
2022/09/03 02:51:59;;;;;;;28.33;27.03;;;17.80;70.80;;;;;;5003888;28;20535;-67
2022/09/03 02:54:27;;;;;;;26.70;25.50;;;17.80;70.90;;;;;;5006566;28;20532;-66
2022/09/03 02:56:54;;;;;;;30.83;29.23;;;17.80;71.00;;;;;;5003404;28;20520;-67
2022/09/03 02:59:22;;;;;;;29.37;28.07;;;17.80;71.00;;;;;;5008964;28;20463;-67
2022/09/03 03:01:49;;;;;;;28.70;27.40;;;17.80;71.00;;;;;;5004515;28;20496;-67
2022/09/03 03:04:16;;;;;;;28.23;26.80;;;17.80;71.00;;;;;;5005734;28;20460;-66
2022/09/03 03:06:43;;;;;;;27.37;26.17;;;17.80;71.40;;;;;;5006570;28;20462;-67
2022/09/03 03:09:11;;;;;;;30.20;28.80;;;17.70;72.00;;;;;;5008332;28;20465;-67
2022/09/03 03:11:39;;;;;;;28.83;27.50;;;17.60;72.70;;;;;;5007231;28;20481;-67
2022/09/03 03:14:06;;;;;;;28.30;27.00;;;17.60;72.80;;;;;;5011617;28;21004;-67
2022/09/03 03:16:32;;;;;;;29.93;28.63;;;17.50;73.00;;;;;;5006882;28;20467;-67
2022/09/03 03:19:00;;;;;;;28.07;26.77;;;17.50;73.00;;;;;;5005264;28;20464;-67
2022/09/03 03:21:26;;;;;;;31.57;29.90;;;17.50;73.20;;;;;;5009195;28;20564;-66
2022/09/03 03:23:53;;;;;;;27.57;26.03;;;17.50;73.10;;;;;;5008352;28;20470;-67
2022/09/03 03:26:23;;;;;;;37.13;35.03;;;17.50;72.70;;;;;;5008238;28;20470;-67
2022/09/03 03:28:55;;;;;;;37.87;35.47;;;17.40;72.90;;;;;;5003813;28;20473;-67
2022/09/03 03:31:22;;;;;;;28.73;27.43;;;17.40;72.90;;;;;;5009950;28;20535;-66
2022/09/03 03:33:51;;;;;;;34.57;32.57;;;17.40;72.80;;;;;;5003131;28;20486;-69
2022/09/03 03:36:19;;;;;;;28.70;27.47;;;17.30;72.90;;;;;;5007183;28;20514;-70
2022/09/03 03:38:46;;;;;;;29.10;27.83;;;17.40;72.90;;;;;;5004358;28;20459;-70
2022/09/03 03:41:15;;;;;;;29.30;28.00;;;17.30;72.70;;;;;;5006490;28;20852;-69
2022/09/03 03:43:44;;;;;;;28.57;27.37;;;17.30;72.80;;;;;;5009192;28;20997;-69
2022/09/03 03:46:11;;;;;;;31.03;29.63;;;17.30;72.80;;;;;;5009365;28;20459;-69
2022/09/03 03:48:39;;;;;;;28.63;27.30;;;17.30;73.00;;;;;;5008740;28;20459;-67
2022/09/03 03:51:07;;;;;;;30.37;28.97;;;17.30;73.20;;;;;;5006047;28;20480;-67
2022/09/03 03:53:35;;;;;;;28.43;26.83;;;17.30;73.30;;;;;;5003769;28;20504;-67
2022/09/03 03:56:05;;;;;;;28.47;27.03;;;17.20;73.40;;;;;;5002498;28;20461;-67
2022/09/03 03:58:33;;;;;;;27.53;26.17;;;17.30;73.50;;;;;;5007550;28;20465;-67
2022/09/03 04:01:06;;;;;;;31.80;30.40;;;17.20;73.60;;;;;;5007527;28;20461;-67
2022/09/03 04:03:33;;;;;;;37.47;35.83;;;17.20;74.10;;;;;;5008666;28;20460;-67
2022/09/03 04:06:01;;;;;;;29.13;27.83;;;17.20;73.90;;;;;;5005515;28;20463;-67
2022/09/03 04:08:28;;;;;;;29.00;27.63;;;17.20;73.80;;;;;;4999762;28;20468;-67
2022/09/03 04:11:00;;;;;;;34.10;32.70;;;17.20;73.90;;;;;;5006935;28;20458;-67
2022/09/03 04:13:30;;;;;;;32.50;31.10;;;17.20;73.90;;;;;;5003214;28;20529;-67
2022/09/03 04:16:01;;;;;;;31.03;29.63;;;17.10;73.90;;;;;;5005368;28;20457;-66
2022/09/03 04:18:30;;;;;;;34.00;32.27;;;17.10;74.20;;;;;;5006003;28;20480;-67
2022/09/03 04:21:03;;;;;;;30.93;29.60;;;17.10;74.40;;;;;;5001992;28;20929;-67
2022/09/03 04:23:30;;;;;;;31.87;30.23;;;17.10;74.20;;;;;;5002803;28;20461;-67
2022/09/03 04:25:57;;;;;;;32.17;30.67;;;17.10;74.30;;;;;;4999613;28;20540;-67
2022/09/03 04:28:24;;;;;;;34.47;32.67;;;17.10;74.40;;;;;;5006392;28;20503;-67
2022/09/03 04:30:51;;;;;;;33.80;32.30;;;17.20;74.20;;;;;;5005457;28;20471;-67
2022/09/03 04:33:18;;;;;;;35.43;33.93;;;17.20;74.40;;;;;;5005614;28;20511;-66
2022/09/03 04:35:47;;;;;;;38.80;37.00;;;17.20;74.50;;;;;;5001986;28;20462;-73
2022/09/03 04:38:14;;;;;;;37.93;36.20;;;17.20;74.40;;;;;;5003715;28;20472;-68
2022/09/03 04:40:40;;;;;;;37.40;35.60;;;17.20;74.50;;;;;;5008887;28;20453;-69
2022/09/03 04:43:07;;;;;;;37.07;35.30;;;17.20;74.50;;;;;;5003431;28;20496;-72
2022/09/03 04:45:34;;;;;;;31.60;30.10;;;17.20;74.50;;;;;;5007713;28;20896;-69
2022/09/03 04:48:02;;;;;;;35.20;33.60;;;17.10;74.80;;;;;;5004967;28;20548;-69
2022/09/03 04:50:30;;;;;;;31.40;29.53;;;17.20;74.60;;;;;;5005132;28;20467;-69
2022/09/03 04:53:02;;;;;;;31.70;30.23;;;17.10;74.70;;;;;;5000995;28;20902;-70
2022/09/03 04:55:33;;;;;;;32.73;31.00;;;17.20;74.70;;;;;;5000434;28;20453;-69
2022/09/03 04:58:00;;;;;;;32.93;31.50;;;17.20;74.70;;;;;;5002248;28;20472;-69
2022/09/03 05:00:27;;;;;;;31.93;30.43;;;17.20;74.60;;;;;;5002935;28;20456;-69
2022/09/03 05:02:54;;;;;;;33.57;32.07;;;17.30;74.50;;;;;;5007020;28;20488;-69
2022/09/03 05:05:21;;;;;;;29.17;27.80;;;17.30;74.30;;;;;;5004810;28;20986;-69
2022/09/03 05:07:48;;;;;;;33.50;31.70;;;17.40;74.20;;;;;;5005103;28;20992;-69
2022/09/03 05:10:19;;;;;;;37.40;35.60;;;17.40;74.20;;;;;;5004483;28;20463;-66
2022/09/03 05:12:46;;;;;;;33.43;31.97;;;17.50;74.10;;;;;;5009588;28;21192;-67
2022/09/03 05:15:13;;;;;;;42.77;40.67;;;17.60;74.00;;;;;;4999148;28;20552;-67
2022/09/03 05:17:40;;;;;;;33.17;31.77;;;17.60;73.90;;;;;;5002303;28;20462;-67
2022/09/03 05:20:08;;;;;;;29.07;27.70;;;17.50;73.80;;;;;;5001116;28;20480;-67
2022/09/03 05:22:36;;;;;;;32.50;31.00;;;17.60;74.00;;;;;;5005185;28;20477;-68
2022/09/03 05:25:03;;;;;;;38.80;37.00;;;17.70;73.80;;;;;;5006658;28;20843;-67
2022/09/03 05:27:31;;;;;;;53.53;50.83;;;17.70;73.90;;;;;;5004120;28;20467;-67
2022/09/03 05:29:58;;;;;;;31.23;29.83;;;17.80;73.80;;;;;;5004427;28;20481;-66
2022/09/03 05:32:27;;;;;;;28.23;26.40;;;17.80;73.80;;;;;;5005242;28;20479;-67
2022/09/03 05:34:54;;;;;;;43.00;40.83;;;17.80;73.90;;;;;;5004745;28;20589;-67
2022/09/03 05:37:22;;;;;;;30.07;28.47;;;17.90;73.70;;;;;;5000436;28;20459;-67
2022/09/03 05:39:48;;;;;;;27.77;26.47;;;18.00;73.50;;;;;;5004051;28;20854;-66
2022/09/03 05:42:15;;;;;;;47.93;45.53;;;18.10;73.30;;;;;;5005686;28;20476;-67
2022/09/03 05:44:43;;;;;;;28.60;27.27;;;18.20;73.20;;;;;;5007338;28;20461;-67
2022/09/03 05:47:10;;;;;;;29.57;28.07;;;18.20;73.00;;;;;;4993892;28;20545;-66
2022/09/03 05:49:37;;;;;;;32.73;31.13;;;18.30;72.70;;;;;;5000995;28;20474;-67
2022/09/03 05:52:04;;;;;;;28.80;27.60;;;18.50;72.20;;;;;;5004987;28;20834;-67
2022/09/03 05:54:31;;;;;;;37.70;36.00;;;18.50;72.50;;;;;;5007069;28;20499;-67
2022/09/03 05:56:58;;;;;;;28.00;26.80;;;18.50;72.30;;;;;;5002159;28;20468;-67
2022/09/03 05:59:25;;;;;;;28.70;27.40;;;18.50;72.50;;;;;;5008788;28;20974;-67
2022/09/03 06:01:53;;;;;;;47.13;44.83;;;18.50;72.30;;;;;;5006072;28;20934;-66
2022/09/03 06:04:20;;;;;;;37.27;35.50;;;18.50;72.50;;;;;;5003622;28;20461;-67
2022/09/03 06:06:48;;;;;;;32.40;30.90;;;18.60;72.30;;;;;;5005207;28;21808;-67
2022/09/03 06:09:17;;;;;;;28.07;26.57;;;18.70;72.00;;;;;;5006769;28;20915;-66
2022/09/03 06:11:45;;;;;;;37.53;35.83;;;18.70;71.70;;;;;;5006724;28;20481;-69
2022/09/03 06:14:13;;;;;;;29.93;28.53;;;18.80;71.60;;;;;;4999245;28;20523;-69
2022/09/03 06:16:42;;;;;;;41.53;39.30;;;18.90;71.30;;;;;;5002771;28;20467;-69
2022/09/03 06:19:13;;;;;;;41.63;39.60;;;19.00;71.50;;;;;;5004115;28;20471;-67
2022/09/03 06:21:41;;;;;;;35.37;33.77;;;19.00;71.50;;;;;;5003594;28;20483;-67
2022/09/03 06:24:10;;;;;;;30.93;29.40;;;19.10;71.40;;;;;;5008833;28;20465;-67
2022/09/03 06:26:37;;;;;;;44.20;42.00;;;19.10;71.50;;;;;;5004680;28;20551;-67
2022/09/03 06:29:04;;;;;;;38.23;36.47;;;19.20;71.40;;;;;;5006044;28;20449;-66
2022/09/03 06:31:31;;;;;;;34.00;32.50;;;19.30;71.20;;;;;;5002963;28;20485;-67
2022/09/03 06:33:58;;;;;;;53.27;50.67;;;19.40;71.30;;;;;;4994713;28;20477;-67
2022/09/03 06:36:27;;;;;;;38.43;36.60;;;19.40;71.30;;;;;;5006155;28;20461;-67
2022/09/03 06:38:55;;;;;;;31.30;29.60;;;19.60;71.10;;;;;;5008594;28;20454;-67
2022/09/03 06:41:24;;;;;;;40.83;38.90;;;19.70;70.70;;;;;;5005885;28;20481;-67
2022/09/03 06:43:53;;;;;;;40.33;38.30;;;19.70;70.80;;;;;;5006909;28;20468;-67
2022/09/03 06:46:22;;;;;;;33.10;31.30;;;19.90;70.30;;;;;;5003944;28;20871;-66
2022/09/03 06:48:50;;;;;;;35.73;33.77;;;20.00;70.10;;;;;;5006758;28;20461;-67
2022/09/03 06:51:19;;;;;;;39.17;37.30;;;20.00;69.80;;;;;;5005640;28;20481;-68
2022/09/03 06:53:49;;;;;;;38.93;36.93;;;20.10;69.80;;;;;;5012897;28;20449;-67
2022/09/03 06:56:18;;;;;;;37.27;35.50;;;20.10;69.80;;;;;;5001938;28;20461;-67
2022/09/03 06:58:48;;;;;;;42.07;40.10;;;20.10;69.90;;;;;;5007459;28;20467;-67
2022/09/03 07:01:17;;;;;;;41.27;39.10;;;20.10;70.20;;;;;;5000699;28;20478;-67
2022/09/03 07:03:47;;;;;;;51.90;49.20;;;20.30;70.10;;;;;;5003051;28;20461;-67
2022/09/03 07:06:17;;;;;;;34.40;32.80;;;20.40;69.80;;;;;;5000183;28;20469;-70
2022/09/03 07:08:45;;;;;;;32.40;30.63;;;20.40;69.70;;;;;;5002433;28;20457;-70
2022/09/03 07:11:15;;;;;;;30.90;29.40;;;20.50;69.80;;;;;;5001282;28;20453;-68
2022/09/03 07:13:44;;;;;;;33.97;32.27;;;20.60;69.40;;;;;;5004751;28;20461;-69
2022/09/03 07:16:12;;;;;;;42.03;39.83;;;20.60;69.20;;;;;;5011673;28;20464;-69
2022/09/03 07:18:39;;;;;;;35.60;33.87;;;20.60;69.40;;;;;;5004453;28;20541;-69
2022/09/03 07:21:08;;;;;;;29.97;28.57;;;20.60;69.50;;;;;;5001610;28;20998;-67
2022/09/03 07:23:37;;;;;;;38.07;36.10;;;20.60;70.00;;;;;;4997957;28;20489;-68
2022/09/03 07:26:06;;;;;;;43.93;41.60;;;20.50;70.20;;;;;;5004960;28;20463;-69
2022/09/03 07:28:36;;;;;;;32.63;31.00;;;20.50;70.30;;;;;;5004187;28;20619;-71
2022/09/03 07:31:06;;;;;;;39.80;37.60;;;20.50;70.70;;;;;;5002618;28;20536;-73
2022/09/03 07:33:33;;;;;;;29.87;28.37;;;20.40;71.00;;;;;;5001901;28;20564;-72
2022/09/03 07:36:05;;;;;;;28.10;26.60;;;20.40;71.30;;;;;;5004994;28;20982;-72
2022/09/03 07:38:32;;;;;;;47.60;45.10;;;20.50;71.30;;;;;;4998944;28;20828;-72
2022/09/03 07:40:59;;;;;;;33.93;32.23;;;20.80;70.60;;;;;;5009210;28;20935;-71
2022/09/03 07:43:27;;;;;;;32.87;30.97;;;21.00;70.30;;;;;;4997266;28;20470;-71
2022/09/03 07:45:56;;;;;;;48.07;45.60;;;21.30;69.80;;;;;;5000567;28;20548;-72
2022/09/03 07:48:24;;;;;;;49.10;46.27;;;21.50;69.10;;;;;;5009628;28;20460;-71
2022/09/03 07:50:51;;;;;;;34.17;32.60;;;21.90;68.20;;;;;;5010221;28;20462;-71
2022/09/03 07:53:19;;;;;;;39.43;37.43;;;22.10;67.60;;;;;;5002561;28;20487;-71
2022/09/03 07:55:47;;;;;;;46.43;43.57;;;22.20;67.10;;;;;;5006047;28;21253;-71
2022/09/03 07:58:14;;;;;;;32.40;30.50;;;22.30;67.10;;;;;;5009697;28;20516;-72
2022/09/03 08:00:41;;;;;;;34.83;33.27;;;22.30;66.90;;;;;;5005586;28;20527;-71
2022/09/03 08:03:10;;;;;;;33.63;32.13;;;22.20;67.40;;;;;;5007557;28;20477;-70
2022/09/03 08:05:37;;;;;;;44.70;42.37;;;22.00;68.00;;;;;;5004633;28;20488;-71
2022/09/03 08:08:04;;;;;;;36.90;35.00;;;22.10;68.10;;;;;;5004192;28;20537;-72
2022/09/03 08:10:34;;;;;;;46.47;44.13;;;22.10;68.20;;;;;;5000885;28;20470;-77
2022/09/03 08:13:04;;;;;;;34.63;32.83;;;22.30;67.90;;;;;;5007694;28;20487;-75
2022/09/03 08:15:31;;;;;;;38.03;36.13;;;22.60;67.10;;;;;;5007823;28;20533;-75
2022/09/03 08:17:59;;;;;;;31.67;29.80;;;22.90;66.80;;;;;;5007024;28;20879;-75
2022/09/03 08:20:28;;;;;;;35.73;34.00;;;23.10;66.30;;;;;;5004962;28;22589;-77
2022/09/03 08:23:01;;;;;;;37.10;35.40;;;23.40;65.30;;;;;;4998689;28;20564;-75
2022/09/03 08:25:32;;;;;;;31.10;29.40;;;23.60;64.70;;;;;;5009581;28;20543;-77
2022/09/03 08:27:59;;;;;;;34.10;32.50;;;23.70;64.50;;;;;;5008962;28;20535;-72
2022/09/03 08:30:27;;;;;;;34.40;32.80;;;23.90;64.10;;;;;;5003752;28;20460;-74
2022/09/03 08:32:54;;;;;;;46.90;44.53;;;24.20;63.50;;;;;;5004779;28;20481;-72
2022/09/03 08:35:21;;;;;;;36.80;35.20;;;24.30;62.90;;;;;;4996671;28;20486;-71
2022/09/03 08:37:52;;;;;;;41.60;39.60;;;24.50;62.90;;;;;;5005274;28;20468;-72
2022/09/03 08:40:23;;;;;;;44.57;42.43;;;24.80;62.20;;;;;;4998460;28;20462;-71
2022/09/03 08:43:04;;;;;;;43.53;41.33;;;24.90;61.60;;;;;;5009443;28;20971;-72
2022/09/03 08:45:33;;;;;;;37.87;35.97;;;25.20;60.70;;;;;;5002053;28;20454;-70
2022/09/03 08:48:05;;;;;;;38.43;36.30;;;25.40;60.20;;;;;;5005667;28;20544;-71
2022/09/03 08:50:37;;;;;;;48.83;46.03;;;25.40;59.90;;;;;;5005245;28;20468;-70
2022/09/03 08:53:18;;;;;;;35.13;33.30;;;25.50;60.00;;;;;;5001747;28;21267;-70
2022/09/03 08:55:51;;;;;;;35.40;33.60;;;25.40;60.00;;;;;;4997233;28;20486;-71
2022/09/03 08:58:20;;;;;;;35.17;33.17;;;25.40;60.10;;;;;;5002259;28;20549;-71
2022/09/03 09:00:50;;;;;;;44.57;42.27;;;25.20;60.50;;;;;;4997661;28;20883;-72
2022/09/03 09:03:53;;;;;;;37.57;35.47;;;25.30;59.80;;;;;;4996773;28;20486;-72
2022/09/03 09:06:28;;;;;;;37.80;35.90;;;25.10;59.70;;;;;;4984151;28;20886;-73
2022/09/03 09:09:09;;;;;;;35.63;33.90;;;24.60;61.10;;;;;;5003588;28;20489;-74
2022/09/03 09:11:48;;;;;;;34.90;33.03;;;24.20;62.20;;;;;;4994776;28;20485;-72
2022/09/03 09:14:20;;;;;;;31.80;29.93;;;24.00;63.00;;;;;;5007640;28;20468;-72
2022/09/03 09:17:02;;;;;;;43.10;40.23;;;23.90;63.00;;;;;;5003237;28;20886;-73
2022/09/03 09:19:41;;;;;;;35.57;33.47;;;24.20;62.10;;;;;;5008757;28;20939;-73
2022/09/03 09:22:11;;;;;;;34.17;32.37;;;24.00;62.80;;;;;;5003924;28;20572;-75
2022/09/03 09:24:43;;;;;;;31.80;30.20;;;23.70;63.50;;;;;;5004833;28;20514;-73
2022/09/03 09:27:15;;;;;;;34.77;33.17;;;23.60;64.00;;;;;;4998037;28;20476;-74
2022/09/03 09:29:46;;;;;;;32.60;31.00;;;23.50;64.50;;;;;;4998489;28;20492;-72
2022/09/03 09:32:16;;;;;;;34.37;32.53;;;23.50;64.60;;;;;;5004639;28;20481;-73
2022/09/03 09:34:43;;;;;;;33.03;31.43;;;23.60;64.30;;;;;;5002340;28;20476;-73
2022/09/03 09:37:13;;;;;;;39.63;37.63;;;23.40;64.50;;;;;;5000699;28;20972;-72
2022/09/03 09:40:06;;;;;;;37.60;35.70;;;23.50;64.50;;;;;;5006255;28;20464;-74
2022/09/03 09:42:33;;;;;;;33.83;32.13;;;23.90;63.00;;;;;;4981549;28;20477;-73
2022/09/03 09:45:09;;;;;;;35.33;33.47;;;23.90;62.70;;;;;;5000591;28;21125;-73
2022/09/03 09:47:39;;;;;;;31.13;29.63;;;24.10;62.20;;;;;;4999938;28;20465;-74
2022/09/03 09:50:19;;;;;;;44.67;42.47;;;24.10;62.00;;;;;;5001504;28;20477;-73
2022/09/03 09:52:47;;;;;;;44.20;42.00;;;24.20;62.20;;;;;;5002626;28;20970;-74
2022/09/03 09:55:22;;;;;;;35.93;34.13;;;24.60;61.50;;;;;;4995372;28;20858;-74
2022/09/03 09:58:04;;;;;;;38.40;36.30;;;24.50;61.50;;;;;;4997967;28;20976;-74
2022/09/03 10:00:33;;;;;;;42.53;40.37;;;24.30;61.80;;;;;;4996505;28;20460;-73
2022/09/03 10:03:00;;;;;;;34.43;32.23;;;24.60;61.60;;;;;;5006349;28;20602;-76
2022/09/03 10:05:35;;;;;;;33.17;31.50;;;24.90;60.60;;;;;;4998396;28;20458;-73
2022/09/03 10:08:05;;;;;;;34.77;33.13;;;24.90;59.90;;;;;;5003275;28;20468;-72
2022/09/03 10:10:43;;;;;;;40.50;38.50;;;24.90;60.00;;;;;;5003295;28;20477;-77
2022/09/03 10:13:13;;;;;;;46.73;44.43;;;24.90;60.00;;;;;;5005544;28;20481;-73
2022/09/03 10:15:45;;;;;;;37.07;35.27;;;24.80;60.30;;;;;;5006530;28;20501;-74
2022/09/03 10:18:26;;;;;;;47.33;44.83;;;24.50;60.50;;;;;;4999836;28;20814;-77
2022/09/03 10:21:30;;;;;;;34.63;32.87;;;24.20;61.30;;;;;;5006661;28;20461;-76
2022/09/03 10:24:04;;;;;;;39.37;36.50;;;23.90;62.00;;;;;;5008086;28;20804;-73
2022/09/03 10:26:33;;;;;;;36.47;34.60;;;23.90;62.10;;;;;;5002117;28;20493;-74
2022/09/03 10:29:04;;;;;;;35.10;33.40;;;24.00;61.80;;;;;;5000575;28;20552;-74
2022/09/03 10:31:43;;;;;;;41.60;39.43;;;23.90;61.60;;;;;;5002049;28;20498;-73
2022/09/03 10:34:15;;;;;;;40.43;38.40;;;23.70;62.20;;;;;;5004185;28;20560;-73
2022/09/03 10:36:53;;;;;;;32.50;30.70;;;23.60;62.70;;;;;;5003551;28;20505;-72
2022/09/03 10:39:23;;;;;;;33.53;31.77;;;23.70;62.40;;;;;;4993390;28;20540;-72
2022/09/03 10:42:05;;;;;;;38.40;36.23;;;23.80;62.30;;;;;;4998018;28;21013;-71
2022/09/03 10:44:47;;;;;;;33.03;31.23;;;23.80;62.50;;;;;;5005964;28;20838;-75
2022/09/03 10:47:39;;;;;;;37.63;35.73;;;24.20;62.10;;;;;;4998616;28;20483;-76
2022/09/03 10:50:15;;;;;;;34.57;32.93;;;24.40;60.90;;;;;;4998411;28;21010;-73
2022/09/03 10:53:03;;;;;;;39.90;37.90;;;24.70;59.90;;;;;;5006213;28;21084;-73
2022/09/03 10:55:38;;;;;;;47.73;45.10;;;24.70;59.60;;;;;;4992059;28;20477;-73
2022/09/03 10:58:19;;;;;;;43.83;41.63;;;24.40;60.20;;;;;;4997869;28;20465;-73
2022/09/03 11:00:54;;;;;;;35.37;33.60;;;24.30;60.60;;;;;;5000949;28;20469;-74
2022/09/03 11:03:46;;;;;;;44.43;42.03;;;24.40;60.60;;;;;;4998181;28;20475;-73
2022/09/03 11:06:20;;;;;;;40.10;37.90;;;24.60;59.80;;;;;;4998716;28;20453;-73
2022/09/03 11:08:58;;;;;;;44.37;41.93;;;24.80;59.60;;;;;;4999374;28;20466;-73
2022/09/03 11:11:31;;;;;;;44.67;42.17;;;25.00;59.20;;;;;;5000955;28;20843;-72
2022/09/03 11:14:08;;;;;;;39.30;37.17;;;25.00;59.30;;;;;;5001287;28;20461;-72
2022/09/03 11:16:40;;;;;;;42.20;39.97;;;25.50;58.20;;;;;;5003181;28;20536;-72
2022/09/03 11:19:11;;;;;;;35.30;33.47;;;25.70;57.40;;;;;;5004901;28;20464;-72
2022/09/03 11:21:40;;;;;;;48.73;46.03;;;25.90;57.10;;;;;;5006269;28;20504;-73
2022/09/03 11:24:13;;;;;;;36.47;34.63;;;25.70;57.10;;;;;;5002939;28;20469;-73
2022/09/03 11:26:43;;;;;;;35.00;33.30;;;25.70;57.40;;;;;;5008361;28;20451;-72
2022/09/03 11:29:15;;;;;;;42.10;39.80;;;25.70;57.40;;;;;;5010993;28;20461;-73
2022/09/03 11:31:56;;;;;;;37.57;35.77;;;25.40;57.80;;;;;;5006161;28;21103;-73
2022/09/03 11:34:30;;;;;;;36.40;34.30;;;25.30;58.40;;;;;;4999560;28;20516;-73
2022/09/03 11:37:22;;;;;;;37.50;35.50;;;25.40;58.40;;;;;;5008659;28;20535;-73
2022/09/03 11:40:03;;;;;;;47.87;45.23;;;25.30;58.50;;;;;;5004930;28;20456;-73
2022/09/03 11:42:35;;;;;;;39.43;37.43;;;25.30;59.00;;;;;;5003045;28;20539;-73
2022/09/03 11:45:24;;;;;;;40.43;38.33;;;25.40;58.60;;;;;;5003535;28;20459;-73
2022/09/03 11:47:52;;;;;;;39.63;37.40;;;25.60;58.20;;;;;;5004686;28;20461;-72
2022/09/03 11:50:24;;;;;;;40.13;38.13;;;25.80;57.90;;;;;;5008719;28;20472;-73
2022/09/03 11:52:53;;;;;;;41.33;39.23;;;25.80;57.80;;;;;;5007710;28;20469;-73
2022/09/03 11:55:30;;;;;;;35.67;33.83;;;25.80;57.70;;;;;;5007335;28;20464;-73
2022/09/03 11:57:57;;;;;;;36.13;34.23;;;25.60;57.80;;;;;;5007227;28;20468;-73
2022/09/03 12:00:25;;;;;;;42.70;40.50;;;25.60;58.00;;;;;;5001844;28;20503;-72
2022/09/03 12:02:57;;;;;;;42.93;40.70;;;25.20;58.80;;;;;;5005239;28;20539;-73
2022/09/03 12:05:36;;;;;;;47.80;45.40;;;25.00;59.20;;;;;;5010871;28;20467;-73
2022/09/03 12:08:22;;;;;;;37.27;35.47;;;24.90;60.00;;;;;;5006230;28;20464;-73
2022/09/03 12:10:58;;;;;;;36.90;34.80;;;24.70;60.30;;;;;;5003020;28;20469;-73
2022/09/03 12:13:44;;;;;;;35.80;33.83;;;24.60;60.70;;;;;;5003594;28;20556;-72
2022/09/03 12:16:58;;;;;;;45.03;42.80;;;24.60;61.60;;;;;;5006141;28;20922;-73
2022/09/03 12:19:32;;;;;;;49.87;46.97;;;24.40;62.50;;;;;;5009624;28;20465;-72
2022/09/03 12:22:03;;;;;;;39.33;37.20;;;24.30;63.60;;;;;;4997465;28;20501;-72
2022/09/03 12:24:32;;;;;;;33.10;31.30;;;24.10;64.30;;;;;;5006413;28;20457;-72
2022/09/03 12:26:59;;;;;;;37.23;35.30;;;24.00;65.30;;;;;;5003883;28;20515;-71
2022/09/03 12:29:29;;;;;;;41.00;38.90;;;23.90;66.00;;;;;;5007059;28;20564;-72
2022/09/03 12:32:07;;;;;;;58.60;55.60;;;23.80;67.30;;;;;;5002016;28;20481;-73
2022/09/03 12:34:34;;;;;;;32.57;30.80;;;23.70;68.50;;;;;;4994722;28;20552;-72
2022/09/03 12:37:03;;;;;;;36.67;34.73;;;23.50;69.60;;;;;;5004954;28;20481;-71
2022/09/03 12:39:30;;;;;;;48.50;45.80;;;23.20;71.30;;;;;;5002583;28;20466;-72
2022/09/03 12:42:02;;;;;;;34.37;32.60;;;22.90;72.50;;;;;;5002211;28;20494;-73
2022/09/03 12:44:32;;;;;;;34.47;32.67;;;22.60;73.90;;;;;;5002073;28;20472;-70
2022/09/03 12:47:10;;;;;;;34.40;32.77;;;22.40;74.80;;;;;;4999872;28;20484;-71
2022/09/03 12:49:39;;;;;;;34.03;32.43;;;22.20;75.20;;;;;;5003902;28;20967;-70
2022/09/03 12:52:12;;;;;;;38.43;36.53;;;21.90;75.30;;;;;;5003971;28;20525;-70